NCAR-RAP Real-Time Weather Data

Output produced by METARs form (19 June 2019  11:31 UTC)
found at http://weather.rap.ucar.edu/surface/
 
KERI 191127Z 00000KT 10SM BKN029 OVC034 18/16 A2983 RMK AO2 T01830156
KERI 191111Z 00000KT 10SM BKN033 OVC042 18/16 A2983 RMK AO2 T01780161
KERI 191051Z 00000KT 10SM BKN027 OVC042 17/16 A2983 RMK AO2 SLP099 T01720161
KERI 190951Z 00000KT 10SM BKN027 BKN035 BKN060 17/15 A2984 RMK AO2 SLP101 T01670150
KERI 190851Z AUTO 00000KT 10SM BKN043 OVC049 17/15 A2984 RMK AO2 SLP101 T01720150 56014 TSNO
KERI 190751Z AUTO 18003KT 10SM FEW035 16/14 A2984 RMK AO2 SLP103 T01560139 TSNO
KERI 190651Z AUTO 00000KT 10SM FEW036 SCT047 17/15 A2986 RMK AO2 SLP109 T01670150 TSNO
KERI 190551Z AUTO 00000KT 10SM FEW035 17/14 A2988 RMK AO2 SLP116 T01670144 10217 20161 55005 TSNO
KERI 190451Z AUTO 00000KT 10SM CLR 16/14 A2988 RMK AO2 SLP115 T01610144 402280161 TSNO
KERI 190351Z 18003KT 10SM FEW046 17/14 A2989 RMK AO2 SLP118 T01670144
KERI 190251Z 00000KT 10SM CLR 18/14 A2990 RMK AO2 SLP121 T01780144 53006
KERI 190151Z 00000KT 10SM CLR 19/15 A2988 RMK AO2 SLP116 T01890150
KERI 190051Z 00000KT 10SM CLR 21/14 A2988 RMK AO2 SLP114 T02060144
KERI 182351Z 00000KT 10SM CLR 22/14 A2988 RMK AO2 SLP114 T02170144 10228 20200 56010
KERI 182251Z 34004KT 10SM CLR 22/15 A2988 RMK AO2 SLP116 T02220150
KERI 182151Z 32005KT 10SM CLR 22/15 A2990 RMK AO2 SLP121 T02220150
KERI 182051Z 33006KT 10SM CLR 22/14 A2991 RMK AO2 SLP125 T02170144 58012
KERI 181951Z VRB04KT 10SM CLR 22/14 A2992 RMK AO2 SLP129 T02170144
KERI 181851Z AUTO 34005KT 10SM CLR 21/13 A2994 RMK AO2 SLP135 T02060133 TSNO
KERI 181751Z 33005KT 10SM CLR 19/13 A2995 RMK AO2 SLP139 T01940133 10206 20172 58004
KERI 181651Z 35005KT 10SM CLR 19/14 A2996 RMK AO2 SLP142 T01940144
KERI 181551Z 30005KT 10SM CLR 19/14 A2996 RMK AO2 SLP142 T01940144
KERI 181451Z 34005KT 10SM CLR 19/14 A2996 RMK AO2 SLP143 T01940144 58001
KERI 181351Z VRB03KT 10SM BKN047 19/15 A2996 RMK AO2 SLP144 T01940150